Carrollton, Ohio
Current Conditions -  °F | °C
As of 10:53 PM on Sunday 23 Nov 2014 (Local Time) from KPHD Reporting Station
Light Rain Light Rain  
Wind Chill: 53°   Ceiling: 5000
Heat Index: 53°   Visibility: 5mi
Dew Point: 50°   Wind: 10mph
Humidity: 89%   Direction: 130°SE
Pressure: 29.44"   Gusts: 21mph
Location:  40.57°N, 81.09°W
Report Text: KPHD 240353Z AUTO 13009G18KT 5SM -RA BR FEW018 SCT029 OVC050 12/10 A2944 RMK AO2 SLP971 P0013 T01170100
Loading
Personal Weather Stations






























Interactive Weather Map New forecast layout! Learn more

10-Day Weather Forecast

Advertisements
Track Severe Weather on mobile